Montauk, New York
Current Conditions -  °F | °C
As of 7:56 AM on Monday 22 Dec 2014 (Local Time) from KGON Reporting Station
Overcast Overcast  
Wind Chill: -1°   Ceiling: 4700
Heat Index:   Visibility: 8mi
Dew Point:   Wind: 12mph
Humidity: 89%   Direction: 40°NE
Pressure: 30.34"   Gusts: NA
Location:  41.04°N, 71.95°W
Report Text: KGON 221256Z 04010KT 8SM OVC047 03/01 A3034 RMK AO2 SLP272 T00280011
Loading
Personal Weather Stations






























Interactive Weather Map New forecast layout! Learn more

10-Day Weather Forecast

Advertisements
Track Severe Weather on mobile